createdAt,value
2022-08-31T00:00:58.428Z,1.90
2022-08-31T00:03:43.705Z,2.13
2022-08-31T00:06:10.308Z,2.08
2022-08-31T00:08:36.935Z,2.00
2022-08-31T00:11:09.839Z,1.90
2022-08-31T00:13:39.048Z,1.80
2022-08-31T00:16:10.325Z,2.80
2022-08-31T00:18:37.792Z,2.00
2022-08-31T00:21:05.238Z,1.98
2022-08-31T00:23:32.180Z,2.10
2022-08-31T00:25:58.788Z,1.65
2022-08-31T00:28:30.050Z,2.05
2022-08-31T00:30:56.628Z,1.92
2022-08-31T00:33:23.185Z,1.98
2022-08-31T00:35:49.739Z,1.90
2022-08-31T00:38:18.895Z,2.17
2022-08-31T00:40:47.310Z,2.13
2022-08-31T00:43:41.057Z,2.22
2022-08-31T00:46:09.692Z,2.28
2022-08-31T00:48:41.847Z,1.95
2022-08-31T00:51:08.808Z,1.90
2022-08-31T00:53:38.508Z,2.03
2022-08-31T00:56:05.471Z,1.67
2022-08-31T00:58:32.093Z,2.00
2022-08-31T01:00:59.733Z,1.83
2022-08-31T01:03:26.473Z,1.80
2022-08-31T01:05:53.307Z,1.80
2022-08-31T01:08:30.745Z,1.90
2022-08-31T01:10:58.902Z,1.77
2022-08-31T01:13:28.713Z,1.90
2022-08-31T01:16:03.461Z,2.30
2022-08-31T01:18:33.443Z,2.08
2022-08-31T01:21:09.482Z,2.20
2022-08-31T01:23:45.384Z,1.85
2022-08-31T01:26:17.696Z,2.00
2022-08-31T01:28:44.658Z,2.05
2022-08-31T01:31:39.266Z,2.03
2022-08-31T01:34:06.138Z,2.15
2022-08-31T01:36:34.340Z,2.30
2022-08-31T01:39:00.919Z,2.33
2022-08-31T01:41:27.706Z,2.10
2022-08-31T01:43:54.688Z,2.78
2022-08-31T01:46:21.831Z,1.90
2022-08-31T01:48:49.205Z,1.75
2022-08-31T01:51:18.700Z,2.05
2022-08-31T01:53:49.404Z,1.88
2022-08-31T01:56:35.786Z,2.30
2022-08-31T01:59:08.064Z,2.10
2022-08-31T02:01:40.158Z,2.50
2022-08-31T02:04:11.749Z,2.38
2022-08-31T02:06:44.816Z,2.83
2022-08-31T02:09:11.732Z,2.05
2022-08-31T02:11:38.478Z,1.80
2022-08-31T02:14:06.926Z,1.80
2022-08-31T02:16:33.866Z,2.30
2022-08-31T02:19:00.619Z,2.38
2022-08-31T02:21:27.704Z,2.25
2022-08-31T02:23:54.408Z,2.17
2022-08-31T02:26:23.612Z,2.00
2022-08-31T02:28:50.175Z,2.15
2022-08-31T02:31:17.438Z,2.42
2022-08-31T02:33:46.503Z,2.17
2022-08-31T02:36:13.027Z,1.98
2022-08-31T02:38:40.382Z,2.50
2022-08-31T02:41:07.593Z,2.05
2022-08-31T02:43:34.133Z,1.90
2022-08-31T02:46:00.783Z,2.15
2022-08-31T02:48:27.504Z,2.10
2022-08-31T02:50:54.836Z,2.10
2022-08-31T02:53:27.425Z,1.92
2022-08-31T02:55:53.990Z,2.28
2022-08-31T02:58:23.942Z,1.98
2022-08-31T03:00:51.181Z,2.05
2022-08-31T03:03:18.829Z,2.00
2022-08-31T03:05:45.615Z,1.70
2022-08-31T03:08:12.143Z,1.95
2022-08-31T03:10:38.784Z,2.00
2022-08-31T03:13:05.678Z,1.90
2022-08-31T03:15:32.553Z,1.83
2022-08-31T03:18:06.780Z,1.92
2022-08-31T03:20:34.600Z,2.38
2022-08-31T03:23:01.517Z,2.15
2022-08-31T03:25:30.008Z,1.83
2022-08-31T03:27:56.812Z,1.88
2022-08-31T03:30:27.591Z,1.98
2022-08-31T03:33:02.324Z,2.60
2022-08-31T03:35:30.236Z,1.95
2022-08-31T03:38:01.057Z,1.88
2022-08-31T03:40:27.721Z,2.30
2022-08-31T03:42:54.358Z,2.10
2022-08-31T03:45:20.955Z,2.17
2022-08-31T03:47:47.542Z,1.90
2022-08-31T03:50:16.676Z,2.50
2022-08-31T03:52:43.228Z,1.75
2022-08-31T03:55:11.558Z,1.70
2022-08-31T03:57:38.353Z,1.80
2022-08-31T04:00:06.391Z,1.80
2022-08-31T04:02:37.367Z,2.08
2022-08-31T04:05:04.552Z,1.73
2022-08-31T04:07:31.160Z,1.70
2022-08-31T04:10:12.348Z,1.77
2022-08-31T04:12:39.930Z,1.90
2022-08-31T04:15:07.540Z,1.63
2022-08-31T04:17:34.695Z,1.73
2022-08-31T04:20:01.265Z,1.95
2022-08-31T04:22:27.929Z,1.88
2022-08-31T04:24:54.549Z,1.67
2022-08-31T04:27:21.046Z,1.58
2022-08-31T04:29:47.612Z,1.60
2022-08-31T04:32:14.242Z,1.70
2022-08-31T04:34:40.826Z,1.52
2022-08-31T04:37:09.910Z,1.52
2022-08-31T04:39:49.470Z,1.33
2022-08-31T04:42:18.028Z,1.65
2022-08-31T04:44:44.555Z,1.10
2022-08-31T04:47:11.246Z,1.50
2022-08-31T04:49:38.313Z,1.40
2022-08-31T04:52:08.288Z,1.52
2022-08-31T04:54:35.265Z,1.35
2022-08-31T04:57:01.905Z,1.63
2022-08-31T04:59:28.501Z,1.50
2022-08-31T05:01:55.876Z,1.30
2022-08-31T05:04:24.642Z,1.50
2022-08-31T05:06:54.185Z,1.50
2022-08-31T05:09:23.676Z,1.50
2022-08-31T05:11:55.039Z,1.40
2022-08-31T05:14:23.289Z,1.60
2022-08-31T05:16:50.692Z,1.60
2022-08-31T05:19:18.014Z,1.65
2022-08-31T05:21:45.291Z,1.38
2022-08-31T05:24:21.600Z,1.63
2022-08-31T05:26:54.216Z,1.52
2022-08-31T05:29:24.619Z,1.30
2022-08-31T05:31:52.617Z,1.20
2022-08-31T05:34:20.803Z,1.25
2022-08-31T05:36:51.623Z,1.40
2022-08-31T05:39:21.098Z,1.42
2022-08-31T05:41:48.939Z,1.60
2022-08-31T05:44:16.533Z,1.00
2022-08-31T05:46:43.723Z,1.13
2022-08-31T05:49:10.959Z,1.50
2022-08-31T05:51:38.914Z,1.20
2022-08-31T05:54:07.155Z,1.10
2022-08-31T05:56:34.575Z,0.93
2022-08-31T05:59:01.956Z,1.05
2022-08-31T06:01:31.912Z,1.00
2022-08-31T06:04:00.324Z,1.10
2022-08-31T06:06:27.613Z,1.30
2022-08-31T06:08:57.778Z,1.23
2022-08-31T06:11:27.426Z,1.20
2022-08-31T06:13:59.796Z,1.00
2022-08-31T06:16:30.273Z,1.20
2022-08-31T06:19:03.228Z,1.20
2022-08-31T06:21:31.650Z,1.40
2022-08-31T06:24:03.301Z,1.35
2022-08-31T06:26:32.597Z,1.30
2022-08-31T06:29:02.778Z,1.20
2022-08-31T06:31:47.029Z,1.38
2022-08-31T06:34:18.939Z,1.20
2022-08-31T06:36:46.297Z,1.13
2022-08-31T06:39:15.124Z,1.45
2022-08-31T06:41:41.745Z,1.23
2022-08-31T06:44:12.036Z,1.20
2022-08-31T06:46:42.280Z,1.50
2022-08-31T06:49:16.685Z,1.27
2022-08-31T06:51:43.939Z,1.13
2022-08-31T06:54:30.984Z,1.00
2022-08-31T06:57:02.857Z,1.40
2022-08-31T06:59:30.141Z,1.33
2022-08-31T07:02:01.298Z,1.10
2022-08-31T07:04:31.037Z,1.02
2022-08-31T07:06:57.692Z,1.15
2022-08-31T07:09:25.027Z,0.93
2022-08-31T07:11:52.370Z,1.05
2022-08-31T07:14:24.123Z,1.10
2022-08-31T07:16:53.343Z,1.13
2022-08-31T07:19:21.962Z,1.00
2022-08-31T07:21:51.918Z,1.00
2022-08-31T07:24:24.195Z,1.00
2022-08-31T07:26:58.200Z,1.33
2022-08-31T07:29:37.586Z,1.02
2022-08-31T07:32:04.246Z,1.20
2022-08-31T07:34:31.449Z,1.02
2022-08-31T07:37:18.249Z,1.20
2022-08-31T07:40:07.541Z,1.02
2022-08-31T07:42:43.915Z,1.23
2022-08-31T07:45:22.851Z,1.10
2022-08-31T07:47:56.551Z,1.25
2022-08-31T07:50:24.299Z,1.40
2022-08-31T07:52:55.636Z,1.10
2022-08-31T07:55:23.697Z,1.30
2022-08-31T07:57:53.347Z,1.30
2022-08-31T08:00:26.805Z,1.17
2022-08-31T08:02:54.131Z,1.20
2022-08-31T08:05:28.915Z,1.25
2022-08-31T08:08:05.563Z,1.30
2022-08-31T08:10:38.479Z,1.33
2022-08-31T08:13:06.853Z,1.20
2022-08-31T08:15:38.783Z,1.20
2022-08-31T08:18:07.968Z,1.20
2022-08-31T08:20:38.276Z,1.20
2022-08-31T08:23:14.530Z,1.10
2022-08-31T08:25:44.285Z,1.48
2022-08-31T08:28:38.204Z,1.50
2022-08-31T08:31:07.885Z,1.30
2022-08-31T08:33:37.733Z,1.13
2022-08-31T08:36:08.842Z,1.40
2022-08-31T08:38:39.364Z,1.10
2022-08-31T08:41:13.301Z,1.17
2022-08-31T08:43:43.763Z,1.20
2022-08-31T08:46:31.716Z,1.55
2022-08-31T08:49:09.376Z,1.80
2022-08-31T08:51:38.665Z,1.10
2022-08-31T08:54:20.434Z,1.50
2022-08-31T08:56:49.948Z,1.63
2022-08-31T08:59:20.018Z,1.38
2022-08-31T09:01:54.131Z,1.63
2022-08-31T09:04:35.171Z,1.25
2022-08-31T09:07:23.096Z,1.33
2022-08-31T09:10:01.272Z,1.50
2022-08-31T09:12:46.222Z,2.05
2022-08-31T09:15:37.440Z,1.60
2022-08-31T09:18:12.968Z,1.80
2022-08-31T09:20:43.263Z,1.40
2022-08-31T09:23:12.274Z,1.50
2022-08-31T09:25:52.181Z,1.80
2022-08-31T09:28:34.991Z,1.65
2022-08-31T09:31:02.126Z,2.03
2022-08-31T09:33:34.719Z,1.50
2022-08-31T09:36:33.662Z,1.77
2022-08-31T09:39:18.207Z,1.85
2022-08-31T09:41:45.978Z,2.00
2022-08-31T09:44:32.049Z,1.75
2022-08-31T09:47:04.069Z,2.05
2022-08-31T09:49:36.673Z,2.00
2022-08-31T09:52:48.091Z,2.03
2022-08-31T09:55:19.821Z,2.00
2022-08-31T09:57:54.048Z,1.88
2022-08-31T10:00:39.830Z,2.20
2022-08-31T10:03:29.989Z,2.08
2022-08-31T10:05:56.981Z,2.35
2022-08-31T10:08:58.164Z,2.03
2022-08-31T10:11:31.181Z,2.10
2022-08-31T10:14:08.849Z,2.13
2022-08-31T10:16:41.712Z,2.13
2022-08-31T10:19:30.417Z,1.95
2022-08-31T10:22:03.453Z,1.98
2022-08-31T10:24:46.154Z,1.80
2022-08-31T10:27:20.270Z,2.40
2022-08-31T10:29:49.315Z,1.98
2022-08-31T10:32:30.537Z,2.05
2022-08-31T10:35:19.475Z,2.22
2022-08-31T10:38:26.147Z,1.92
2022-08-31T10:41:06.753Z,1.70
2022-08-31T10:44:28.591Z,2.30
2022-08-31T10:47:02.965Z,2.10
2022-08-31T10:49:33.335Z,2.03
2022-08-31T10:52:11.857Z,1.90
2022-08-31T10:54:47.762Z,1.88
2022-08-31T10:57:32.498Z,2.13
2022-08-31T11:00:29.931Z,2.45
2022-08-31T11:03:10.605Z,1.90
2022-08-31T11:05:48.648Z,2.00
2022-08-31T11:08:49.090Z,1.90
2022-08-31T11:11:43.951Z,1.80
2022-08-31T11:14:29.403Z,2.20
2022-08-31T11:16:55.973Z,2.00
2022-08-31T11:19:50.711Z,1.88
2022-08-31T11:22:42.119Z,1.92
2022-08-31T11:25:48.134Z,2.20
2022-08-31T11:28:52.303Z,2.00
2022-08-31T11:31:24.213Z,1.95
2022-08-31T11:34:17.006Z,2.20
2022-08-31T11:36:50.331Z,2.33
2022-08-31T11:39:43.068Z,2.10
2022-08-31T11:42:27.467Z,2.10
2022-08-31T11:45:01.597Z,2.13
2022-08-31T11:47:28.241Z,1.77
2022-08-31T11:50:33.844Z,2.10
2022-08-31T11:53:20.655Z,1.90
2022-08-31T11:55:49.418Z,2.00
2022-08-31T11:58:26.560Z,1.73
2022-08-31T12:01:06.920Z,1.77
2022-08-31T12:03:50.706Z,1.80
2022-08-31T12:06:27.876Z,1.95
2022-08-31T12:09:20.412Z,1.70
2022-08-31T12:12:06.503Z,1.70
2022-08-31T12:14:50.236Z,1.98
2022-08-31T12:17:27.599Z,1.80
2022-08-31T12:20:32.288Z,2.10
2022-08-31T12:23:31.167Z,1.45
2022-08-31T12:26:10.171Z,1.25
2022-08-31T12:28:59.810Z,1.58
2022-08-31T12:31:26.804Z,1.55
2022-08-31T12:34:07.969Z,1.42
2022-08-31T12:36:36.718Z,1.45
2022-08-31T12:39:26.006Z,1.90
2022-08-31T12:41:56.788Z,1.55
2022-08-31T12:44:36.786Z,1.60
2022-08-31T12:47:24.372Z,1.60
2022-08-31T12:50:09.165Z,1.27
2022-08-31T12:53:20.121Z,1.35
2022-08-31T12:55:54.955Z,1.60
2022-08-31T12:58:41.590Z,1.70
2022-08-31T13:01:14.821Z,1.80
2022-08-31T13:03:54.249Z,1.35
2022-08-31T13:06:32.902Z,1.20
2022-08-31T13:09:00.981Z,1.80
2022-08-31T13:11:40.149Z,1.63
2022-08-31T13:14:20.041Z,1.65
2022-08-31T13:16:53.409Z,1.50
2022-08-31T13:19:39.414Z,1.42
2022-08-31T13:22:17.150Z,1.60
2022-08-31T13:24:53.983Z,1.50
2022-08-31T13:27:27.516Z,1.77
2022-08-31T13:29:58.746Z,2.13
2022-08-31T13:32:32.195Z,2.33
2022-08-31T13:35:05.941Z,1.85
2022-08-31T13:37:39.007Z,1.70
2022-08-31T13:40:13.177Z,1.65
2022-08-31T13:42:46.850Z,1.77
2022-08-31T13:45:30.269Z,1.80
2022-08-31T13:48:19.372Z,2.00
2022-08-31T13:50:56.206Z,1.63
2022-08-31T13:54:08.837Z,1.75
2022-08-31T13:56:57.973Z,1.60
2022-08-31T13:59:53.774Z,1.80
2022-08-31T14:02:21.673Z,1.73
2022-08-31T14:05:00.607Z,2.05
2022-08-31T14:07:39.201Z,1.70
2022-08-31T14:10:20.505Z,1.80
2022-08-31T14:12:57.495Z,1.40
2022-08-31T14:15:35.403Z,1.85
2022-08-31T14:18:26.130Z,1.40
2022-08-31T14:21:26.917Z,1.40
2022-08-31T14:24:01.730Z,1.73
2022-08-31T14:26:52.123Z,1.65
2022-08-31T14:29:21.003Z,1.50
2022-08-31T14:31:52.929Z,1.85
2022-08-31T14:34:25.900Z,1.48
2022-08-31T14:37:07.844Z,1.65
2022-08-31T14:39:41.817Z,1.27
2022-08-31T14:42:17.140Z,1.60
2022-08-31T14:44:53.727Z,1.55
2022-08-31T14:47:24.263Z,1.70
2022-08-31T14:49:54.817Z,1.52
2022-08-31T14:52:21.774Z,1.80
2022-08-31T14:54:48.585Z,1.88
2022-08-31T14:57:25.439Z,1.67
2022-08-31T14:59:59.683Z,1.80
2022-08-31T15:02:33.424Z,1.63
2022-08-31T15:05:06.547Z,2.13
2022-08-31T15:07:40.327Z,1.60
2022-08-31T15:10:12.890Z,1.45
2022-08-31T15:12:42.514Z,1.50
2022-08-31T15:15:11.294Z,1.80
2022-08-31T15:17:39.576Z,1.50
2022-08-31T15:20:08.078Z,1.48
2022-08-31T15:22:40.548Z,1.67
2022-08-31T15:25:11.936Z,1.80
2022-08-31T15:27:41.663Z,1.70
2022-08-31T15:30:09.366Z,1.52
2022-08-31T15:32:43.235Z,1.73
2022-08-31T15:35:22.295Z,1.80
2022-08-31T15:37:58.935Z,1.67
2022-08-31T15:40:29.155Z,1.40
2022-08-31T15:42:56.271Z,1.60
2022-08-31T15:45:23.602Z,1.90
2022-08-31T15:48:08.460Z,1.50
2022-08-31T15:50:35.945Z,1.27
2022-08-31T15:53:11.965Z,1.23
2022-08-31T15:55:42.542Z,1.48
2022-08-31T15:58:12.721Z,1.40
2022-08-31T16:00:41.866Z,1.40
2022-08-31T16:03:08.960Z,1.48
2022-08-31T16:05:39.393Z,1.50
2022-08-31T16:08:10.651Z,1.80
2022-08-31T16:10:41.494Z,1.50
2022-08-31T16:13:09.341Z,1.77
2022-08-31T16:15:37.792Z,1.50
2022-08-31T16:18:05.850Z,1.80
2022-08-31T16:20:32.742Z,1.40
2022-08-31T16:23:00.698Z,1.40
2022-08-31T16:25:30.454Z,1.60
2022-08-31T16:28:14.699Z,1.45
2022-08-31T16:30:43.692Z,1.42
2022-08-31T16:33:11.193Z,1.50
2022-08-31T16:35:39.331Z,1.40
2022-08-31T16:38:08.345Z,1.35
2022-08-31T16:40:37.449Z,1.27
2022-08-31T16:43:06.426Z,1.33
2022-08-31T16:45:33.288Z,1.58
2022-08-31T16:48:20.291Z,1.60
2022-08-31T16:50:48.683Z,1.50
2022-08-31T16:53:18.210Z,1.40
2022-08-31T16:55:47.445Z,1.50
2022-08-31T16:58:24.914Z,1.58
2022-08-31T17:01:11.977Z,1.48
2022-08-31T17:03:47.190Z,1.30
2022-08-31T17:06:14.047Z,1.67
2022-08-31T17:08:47.310Z,1.30
2022-08-31T17:11:22.499Z,1.35
2022-08-31T17:13:52.752Z,1.55
2022-08-31T17:16:23.751Z,1.40
2022-08-31T17:18:52.644Z,1.40
2022-08-31T17:21:24.984Z,1.52
2022-08-31T17:23:52.753Z,1.60
2022-08-31T17:26:23.085Z,1.27
2022-08-31T17:29:01.799Z,1.30
2022-08-31T17:31:31.571Z,1.50
2022-08-31T17:33:59.074Z,1.70
2022-08-31T17:36:32.288Z,1.13
2022-08-31T17:39:00.836Z,1.30
2022-08-31T17:41:28.285Z,1.27
2022-08-31T17:43:58.485Z,1.10
2022-08-31T17:46:25.992Z,1.08
2022-08-31T17:49:01.145Z,1.23
2022-08-31T17:51:35.277Z,1.20
2022-08-31T17:54:11.242Z,0.90
2022-08-31T17:56:47.640Z,1.10
2022-08-31T17:59:21.333Z,1.35
2022-08-31T18:01:52.341Z,1.20
2022-08-31T18:04:20.530Z,1.30
2022-08-31T18:06:51.501Z,1.20
2022-08-31T18:09:19.770Z,1.50
2022-08-31T18:11:48.998Z,1.15
2022-08-31T18:14:21.494Z,0.98
2022-08-31T18:16:49.379Z,1.02
2022-08-31T18:19:25.575Z,1.17
2022-08-31T18:21:58.366Z,1.20
2022-08-31T18:24:25.796Z,1.15
2022-08-31T18:26:56.810Z,0.95
2022-08-31T18:29:24.952Z,1.13
2022-08-31T18:31:56.750Z,1.17
2022-08-31T18:34:24.691Z,1.10
2022-08-31T18:36:53.711Z,1.30
2022-08-31T18:39:47.730Z,1.10
2022-08-31T18:42:27.893Z,1.55
2022-08-31T18:45:20.520Z,1.45
2022-08-31T18:48:20.978Z,1.08
2022-08-31T18:50:47.952Z,0.93
2022-08-31T18:53:27.532Z,1.27
2022-08-31T18:55:56.865Z,1.00
2022-08-31T18:58:23.504Z,1.30
2022-08-31T19:00:58.388Z,1.00
2022-08-31T19:03:27.393Z,1.30
2022-08-31T19:05:54.469Z,1.40
2022-08-31T19:08:21.087Z,1.02
2022-08-31T19:10:49.127Z,1.00
2022-08-31T19:13:16.207Z,1.10
2022-08-31T19:15:43.767Z,1.10
2022-08-31T19:18:10.329Z,1.10
2022-08-31T19:20:37.028Z,1.08
2022-08-31T19:23:06.410Z,1.20
2022-08-31T19:25:33.051Z,1.95
2022-08-31T19:28:01.581Z,1.00
2022-08-31T19:30:33.450Z,1.23
2022-08-31T19:33:07.501Z,1.13
2022-08-31T19:35:36.169Z,1.00
2022-08-31T19:38:02.860Z,0.98
2022-08-31T19:40:38.132Z,1.30
2022-08-31T19:45:53.604Z,1.00
2022-08-31T19:48:23.271Z,0.80
2022-08-31T19:50:58.124Z,1.08
2022-08-31T19:53:27.755Z,1.00
2022-08-31T19:55:57.424Z,1.00
2022-08-31T19:58:26.667Z,1.02
2022-08-31T20:01:00.584Z,1.10
2022-08-31T20:03:28.275Z,1.13
2022-08-31T20:05:59.483Z,1.00
2022-08-31T20:08:28.536Z,0.90
2022-08-31T20:10:55.108Z,1.08
2022-08-31T20:13:24.145Z,1.20
2022-08-31T20:15:52.919Z,1.10
2022-08-31T20:18:20.124Z,1.17
2022-08-31T20:20:48.429Z,1.15
2022-08-31T20:23:17.151Z,0.88
2022-08-31T20:25:51.740Z,0.93
2022-08-31T20:28:26.414Z,1.23
2022-08-31T20:30:59.921Z,0.98
2022-08-31T20:33:27.476Z,0.90
2022-08-31T20:35:54.181Z,1.20
2022-08-31T20:38:20.945Z,1.00
2022-08-31T20:40:52.110Z,0.93
2022-08-31T20:43:21.344Z,1.20
2022-08-31T20:45:50.958Z,1.00
2022-08-31T20:48:35.950Z,0.93
2022-08-31T20:51:16.397Z,0.90
2022-08-31T20:53:44.518Z,1.20
2022-08-31T20:56:17.082Z,1.13
2022-08-31T20:58:45.329Z,1.00
2022-08-31T21:01:13.625Z,0.95
2022-08-31T21:03:40.819Z,1.33
2022-08-31T21:06:11.204Z,1.00
2022-08-31T21:08:39.937Z,1.13
2022-08-31T21:11:16.123Z,1.25
2022-08-31T21:13:44.471Z,1.27
2022-08-31T21:16:11.201Z,1.73
2022-08-31T21:18:40.753Z,1.10
2022-08-31T21:21:10.022Z,1.73
2022-08-31T21:23:38.345Z,1.30
2022-08-31T21:26:08.680Z,1.27
2022-08-31T21:28:38.907Z,1.20
2022-08-31T21:31:16.579Z,1.10
2022-08-31T21:33:46.409Z,1.30
2022-08-31T21:36:15.287Z,1.50
2022-08-31T21:38:43.599Z,1.20
2022-08-31T21:41:12.325Z,1.40
2022-08-31T21:43:40.153Z,1.30
2022-08-31T21:46:21.364Z,1.17
2022-08-31T21:48:49.238Z,1.65
2022-08-31T21:51:42.119Z,1.10
2022-08-31T21:54:09.545Z,1.70
2022-08-31T21:56:46.165Z,1.25
2022-08-31T21:59:16.101Z,1.20
2022-08-31T22:01:44.002Z,1.30
2022-08-31T22:04:12.257Z,1.30
2022-08-31T22:06:40.867Z,1.08
2022-08-31T22:09:12.035Z,1.20
2022-08-31T22:11:41.780Z,1.38
2022-08-31T22:14:12.944Z,1.27
2022-08-31T22:16:40.790Z,1.20
2022-08-31T22:19:13.305Z,1.40
2022-08-31T22:21:43.143Z,1.33
2022-08-31T22:24:13.253Z,1.30
2022-08-31T22:26:56.537Z,1.23
2022-08-31T22:29:28.628Z,1.23
2022-08-31T22:31:58.179Z,1.13
2022-08-31T22:34:25.731Z,1.20
2022-08-31T22:36:54.333Z,1.20
2022-08-31T22:39:25.511Z,1.05
2022-08-31T22:41:53.062Z,1.42
2022-08-31T22:44:26.018Z,1.00
2022-08-31T22:46:56.236Z,0.98
2022-08-31T22:49:23.874Z,0.98
2022-08-31T22:51:50.486Z,1.15
2022-08-31T22:54:19.215Z,1.20
2022-08-31T22:56:46.329Z,1.38
2022-08-31T22:59:16.937Z,1.10
2022-08-31T23:01:47.914Z,1.30
2022-08-31T23:04:20.231Z,1.00
2022-08-31T23:06:49.438Z,1.23
2022-08-31T23:09:21.066Z,1.10
2022-08-31T23:11:51.481Z,0.88
2022-08-31T23:14:20.970Z,1.05
2022-08-31T23:16:55.145Z,0.93
2022-08-31T23:19:26.275Z,1.00
2022-08-31T23:21:57.517Z,1.13
2022-08-31T23:24:46.939Z,1.20
2022-08-31T23:27:17.085Z,0.80
2022-08-31T23:29:47.256Z,1.33
2022-08-31T23:32:18.201Z,0.95
2022-08-31T23:34:46.595Z,1.08
2022-08-31T23:37:17.472Z,1.13
2022-08-31T23:39:44.980Z,1.15
2022-08-31T23:42:13.845Z,0.90
2022-08-31T23:44:43.648Z,1.30
2022-08-31T23:47:21.566Z,1.30
2022-08-31T23:49:51.431Z,1.95
2022-08-31T23:52:22.763Z,1.27
2022-08-31T23:54:52.368Z,1.27
2022-08-31T23:57:32.659Z,1.10
